Portada
METAR-TAF:

METAR-TAF

Aeroports :

Kunming, Xina

latitud: 25-01N, longitud: 102-41E, altitud: 1892 m

Observació

L'informe es va fer fa 12 minuts, a les 21:00 UTC
Vent 4 kt del Nord
Temperatura 15°C
Humitat 94%
Pressió 1019 hPa
Visibilitat: 8000 m

METAR: ZPPP 142100Z 36002MPS 8000 NSC 15/14 Q1019 NOSIG

Hora: 05:12 (21:12 UTC)

Pronòstic

L'informe es va fer fa 8 hores i 6 minuts, a les 13:06 UTC
Pronòstic vàlid del 14 a les 18 UTC al 15 a les 18 UTC
Vent 8 kt del Nord-Est
Visibilitat 10 km o més
Núvols disperses a una alçada de 2600 ft

TAF: ZPPP 141306Z 1418/1518 04004MPS 9999 SCT026 TX25/1508Z TN16/1423Z

Observacions i pronòstics meteorològics de més de 4000 aeroports (METAR i TAF).

Les estacions disponibles són els punts grocs i vermells al mapa.

Posi el ratolí al punt desitjat per veure el nom de l'estació.

Feu clic per veure les observacions i els pronòstics meteorològics.

Per canviar el mapa: feu clic els botons verds amb una creu de color negre per apropar; al botó verd amb un guió per allunyar la imatge; o en les fletxes verdes per a mapes adjacents.


METAR-TAF: